sensor_id;sensor_type;location;lat;lon;timestamp;temperature;humidity
60860;DHT22;46694;54.382;9.708;2024-03-08T00:00:05;3.00;99.90
60860;DHT22;46694;54.382;9.708;2024-03-08T00:02:36;3.00;99.90
60860;DHT22;46694;54.382;9.708;2024-03-08T00:05:04;2.90;99.90
60860;DHT22;46694;54.382;9.708;2024-03-08T00:07:30;2.90;99.90
60860;DHT22;46694;54.382;9.708;2024-03-08T00:09:56;2.90;99.90
60860;DHT22;46694;54.382;9.708;2024-03-08T00:12:22;2.90;99.90
60860;DHT22;46694;54.382;9.708;2024-03-08T00:14:48;2.80;99.90
60860;DHT22;46694;54.382;9.708;2024-03-08T00:17:14;2.80;99.90
60860;DHT22;46694;54.382;9.708;2024-03-08T00:19:41;2.80;99.90
60860;DHT22;46694;54.382;9.708;2024-03-08T00:22:06;2.80;99.90
60860;DHT22;46694;54.382;9.708;2024-03-08T00:24:33;2.80;99.90
60860;DHT22;46694;54.382;9.708;2024-03-08T00:26:59;2.70;99.90
60860;DHT22;46694;54.382;9.708;2024-03-08T00:29:25;2.70;99.90
60860;DHT22;46694;54.382;9.708;2024-03-08T00:31:50;2.70;99.90
60860;DHT22;46694;54.382;9.708;2024-03-08T00:34:16;2.70;99.90
60860;DHT22;46694;54.382;9.708;2024-03-08T00:36:42;2.70;99.90
60860;DHT22;46694;54.382;9.708;2024-03-08T00:39:08;2.70;99.90
60860;DHT22;46694;54.382;9.708;2024-03-08T00:41:33;2.70;99.90
60860;DHT22;46694;54.382;9.708;2024-03-08T00:43:59;2.60;99.90
60860;DHT22;46694;54.382;9.708;2024-03-08T00:46:25;2.60;99.90
60860;DHT22;46694;54.382;9.708;2024-03-08T00:48:53;2.60;99.90
60860;DHT22;46694;54.382;9.708;2024-03-08T00:51:18;2.60;99.90
60860;DHT22;46694;54.382;9.708;2024-03-08T00:53:44;2.60;99.90
60860;DHT22;46694;54.382;9.708;2024-03-08T00:56:10;2.60;99.90
60860;DHT22;46694;54.382;9.708;2024-03-08T00:58:39;2.50;99.90
60860;DHT22;46694;54.382;9.708;2024-03-08T01:01:05;2.50;99.90
60860;DHT22;46694;54.382;9.708;2024-03-08T01:03:31;2.50;99.90
60860;DHT22;46694;54.382;9.708;2024-03-08T01:05:57;2.50;99.90
60860;DHT22;46694;54.382;9.708;2024-03-08T01:08:26;2.50;99.90
60860;DHT22;46694;54.382;9.708;2024-03-08T01:10:53;2.50;99.90
60860;DHT22;46694;54.382;9.708;2024-03-08T01:13:19;2.50;99.90
60860;DHT22;46694;54.382;9.708;2024-03-08T01:15:45;2.50;99.90
60860;DHT22;46694;54.382;9.708;2024-03-08T01:18:11;2.50;99.90
60860;DHT22;46694;54.382;9.708;2024-03-08T01:20:37;2.50;99.90
60860;DHT22;46694;54.382;9.708;2024-03-08T01:23:03;2.50;99.90
60860;DHT22;46694;54.382;9.708;2024-03-08T01:25:33;2.50;99.90
60860;DHT22;46694;54.382;9.708;2024-03-08T01:27:59;2.40;99.90
60860;DHT22;46694;54.382;9.708;2024-03-08T01:30:25;2.40;99.90
60860;DHT22;46694;54.382;9.708;2024-03-08T01:32:51;2.40;99.90
60860;DHT22;46694;54.382;9.708;2024-03-08T01:35:16;2.40;99.90
60860;DHT22;46694;54.382;9.708;2024-03-08T01:37:43;2.40;99.90
60860;DHT22;46694;54.382;9.708;2024-03-08T01:40:09;2.40;99.90
60860;DHT22;46694;54.382;9.708;2024-03-08T01:42:35;2.40;99.90
60860;DHT22;46694;54.382;9.708;2024-03-08T01:45:06;2.40;99.90
60860;DHT22;46694;54.382;9.708;2024-03-08T01:47:32;2.40;99.90
60860;DHT22;46694;54.382;9.708;2024-03-08T01:49:59;2.40;99.90
60860;DHT22;46694;54.382;9.708;2024-03-08T01:52:36;2.40;99.90
60860;DHT22;46694;54.382;9.708;2024-03-08T01:55:03;2.30;99.90
60860;DHT22;46694;54.382;9.708;2024-03-08T01:57:32;2.30;99.90
60860;DHT22;46694;54.382;9.708;2024-03-08T02:00:04;2.30;99.90
60860;DHT22;46694;54.382;9.708;2024-03-08T02:02:32;2.30;99.90
60860;DHT22;46694;54.382;9.708;2024-03-08T02:05:01;2.30;99.90
60860;DHT22;46694;54.382;9.708;2024-03-08T02:07:31;2.30;99.90
60860;DHT22;46694;54.382;9.708;2024-03-08T02:09:57;2.20;99.90
60860;DHT22;46694;54.382;9.708;2024-03-08T02:12:24;2.20;99.90
60860;DHT22;46694;54.382;9.708;2024-03-08T02:14:50;2.20;99.90
60860;DHT22;46694;54.382;9.708;2024-03-08T02:17:15;2.20;99.90
60860;DHT22;46694;54.382;9.708;2024-03-08T02:19:44;2.20;99.90
60860;DHT22;46694;54.382;9.708;2024-03-08T02:22:10;2.20;99.90
60860;DHT22;46694;54.382;9.708;2024-03-08T02:24:36;2.30;99.90
60860;DHT22;46694;54.382;9.708;2024-03-08T02:27:02;2.20;99.90
60860;DHT22;46694;54.382;9.708;2024-03-08T02:29:28;2.20;99.90
60860;DHT22;46694;54.382;9.708;2024-03-08T02:31:54;2.20;99.90
60860;DHT22;46694;54.382;9.708;2024-03-08T02:34:21;2.20;99.90
60860;DHT22;46694;54.382;9.708;2024-03-08T02:36:46;2.20;99.90
60860;DHT22;46694;54.382;9.708;2024-03-08T02:39:12;2.20;99.90
60860;DHT22;46694;54.382;9.708;2024-03-08T02:41:38;2.20;99.90
60860;DHT22;46694;54.382;9.708;2024-03-08T02:44:04;2.20;99.90
60860;DHT22;46694;54.382;9.708;2024-03-08T02:46:30;2.10;99.90
60860;DHT22;46694;54.382;9.708;2024-03-08T02:48:56;2.20;99.90
60860;DHT22;46694;54.382;9.708;2024-03-08T02:51:22;2.10;99.90
60860;DHT22;46694;54.382;9.708;2024-03-08T02:53:47;2.10;99.90
60860;DHT22;46694;54.382;9.708;2024-03-08T02:56:17;2.10;99.90
60860;DHT22;46694;54.382;9.708;2024-03-08T02:58:43;2.10;99.90
60860;DHT22;46694;54.382;9.708;2024-03-08T03:01:14;2.10;99.90
60860;DHT22;46694;54.382;9.708;2024-03-08T03:03:41;2.10;99.90
60860;DHT22;46694;54.382;9.708;2024-03-08T03:06:07;2.10;99.90
60860;DHT22;46694;54.382;9.708;2024-03-08T03:08:33;2.10;99.90
60860;DHT22;46694;54.382;9.708;2024-03-08T03:10:59;2.10;99.90
60860;DHT22;46694;54.382;9.708;2024-03-08T03:13:25;2.10;99.90
60860;DHT22;46694;54.382;9.708;2024-03-08T03:15:50;2.10;99.90
60860;DHT22;46694;54.382;9.708;2024-03-08T03:18:17;2.10;99.90
60860;DHT22;46694;54.382;9.708;2024-03-08T03:20:46;2.10;99.90
60860;DHT22;46694;54.382;9.708;2024-03-08T03:23:12;2.10;99.90
60860;DHT22;46694;54.382;9.708;2024-03-08T03:25:39;2.10;99.90
60860;DHT22;46694;54.382;9.708;2024-03-08T03:28:06;2.10;99.90
60860;DHT22;46694;54.382;9.708;2024-03-08T03:30:33;2.10;99.90
60860;DHT22;46694;54.382;9.708;2024-03-08T03:33:00;2.10;99.90
60860;DHT22;46694;54.382;9.708;2024-03-08T03:35:27;2.10;99.90
60860;DHT22;46694;54.382;9.708;2024-03-08T03:37:54;2.10;99.90
60860;DHT22;46694;54.382;9.708;2024-03-08T03:40:36;2.10;99.90
60860;DHT22;46694;54.382;9.708;2024-03-08T03:43:03;2.20;99.90
60860;DHT22;46694;54.382;9.708;2024-03-08T03:45:29;2.20;99.90
60860;DHT22;46694;54.382;9.708;2024-03-08T03:47:59;2.30;99.90
60860;DHT22;46694;54.382;9.708;2024-03-08T03:50:26;2.30;99.90
60860;DHT22;46694;54.382;9.708;2024-03-08T03:52:51;2.30;99.90
60860;DHT22;46694;54.382;9.708;2024-03-08T03:55:17;2.40;99.90
60860;DHT22;46694;54.382;9.708;2024-03-08T03:57:45;2.40;99.90
60860;DHT22;46694;54.382;9.708;2024-03-08T04:00:11;2.40;99.90
60860;DHT22;46694;54.382;9.708;2024-03-08T04:02:38;2.50;99.90
60860;DHT22;46694;54.382;9.708;2024-03-08T04:05:06;2.50;99.90
60860;DHT22;46694;54.382;9.708;2024-03-08T04:07:33;2.40;99.90
60860;DHT22;46694;54.382;9.708;2024-03-08T04:10:02;2.50;99.90
60860;DHT22;46694;54.382;9.708;2024-03-08T04:12:28;2.50;99.90
60860;DHT22;46694;54.382;9.708;2024-03-08T04:14:55;2.50;99.90
60860;DHT22;46694;54.382;9.708;2024-03-08T04:17:22;2.50;99.90
60860;DHT22;46694;54.382;9.708;2024-03-08T04:19:49;2.50;99.90
60860;DHT22;46694;54.382;9.708;2024-03-08T04:22:15;2.60;99.90
60860;DHT22;46694;54.382;9.708;2024-03-08T04:24:46;2.60;99.90
60860;DHT22;46694;54.382;9.708;2024-03-08T04:27:12;2.60;99.90
60860;DHT22;46694;54.382;9.708;2024-03-08T04:29:39;2.60;99.90
60860;DHT22;46694;54.382;9.708;2024-03-08T04:32:06;2.60;99.90
60860;DHT22;46694;54.382;9.708;2024-03-08T04:34:34;2.60;99.90
60860;DHT22;46694;54.382;9.708;2024-03-08T04:37:00;2.60;99.90
60860;DHT22;46694;54.382;9.708;2024-03-08T04:39:27;2.60;99.90
60860;DHT22;46694;54.382;9.708;2024-03-08T04:42:02;2.60;99.90
60860;DHT22;46694;54.382;9.708;2024-03-08T04:44:36;2.60;99.90
60860;DHT22;46694;54.382;9.708;2024-03-08T04:47:06;2.70;99.90
60860;DHT22;46694;54.382;9.708;2024-03-08T04:49:32;2.70;99.90
60860;DHT22;46694;54.382;9.708;2024-03-08T04:52:04;2.70;99.90
60860;DHT22;46694;54.382;9.708;2024-03-08T04:54:31;2.70;99.90
60860;DHT22;46694;54.382;9.708;2024-03-08T04:56:57;2.70;99.90
60860;DHT22;46694;54.382;9.708;2024-03-08T04:59:23;2.70;99.90
60860;DHT22;46694;54.382;9.708;2024-03-08T05:01:49;2.70;99.90
60860;DHT22;46694;54.382;9.708;2024-03-08T05:04:18;2.70;99.90
60860;DHT22;46694;54.382;9.708;2024-03-08T05:06:44;2.70;99.90
60860;DHT22;46694;54.382;9.708;2024-03-08T05:09:09;2.70;99.90
60860;DHT22;46694;54.382;9.708;2024-03-08T05:11:46;2.70;99.90
60860;DHT22;46694;54.382;9.708;2024-03-08T05:14:14;2.70;99.90
60860;DHT22;46694;54.382;9.708;2024-03-08T05:16:43;2.70;99.90
60860;DHT22;46694;54.382;9.708;2024-03-08T05:19:16;2.70;99.90
60860;DHT22;46694;54.382;9.708;2024-03-08T05:21:49;2.70;99.90
60860;DHT22;46694;54.382;9.708;2024-03-08T05:24:16;2.70;99.90
60860;DHT22;46694;54.382;9.708;2024-03-08T05:26:42;2.80;99.90
60860;DHT22;46694;54.382;9.708;2024-03-08T05:29:08;2.70;99.90
60860;DHT22;46694;54.382;9.708;2024-03-08T05:31:54;2.80;99.90
60860;DHT22;46694;54.382;9.708;2024-03-08T05:34:21;2.80;99.90
60860;DHT22;46694;54.382;9.708;2024-03-08T05:36:48;2.80;99.90
60860;DHT22;46694;54.382;9.708;2024-03-08T05:39:18;2.80;99.90
60860;DHT22;46694;54.382;9.708;2024-03-08T05:41:44;2.90;99.90
60860;DHT22;46694;54.382;9.708;2024-03-08T05:44:11;2.80;99.90
60860;DHT22;46694;54.382;9.708;2024-03-08T05:46:38;2.80;99.90
60860;DHT22;46694;54.382;9.708;2024-03-08T05:49:08;2.90;99.90
60860;DHT22;46694;54.382;9.708;2024-03-08T05:51:36;2.90;99.90
60860;DHT22;46694;54.382;9.708;2024-03-08T05:54:05;2.90;99.90
60860;DHT22;46694;54.382;9.708;2024-03-08T05:56:33;2.90;99.90
60860;DHT22;46694;54.382;9.708;2024-03-08T05:58:59;2.90;99.90
60860;DHT22;46694;54.382;9.708;2024-03-08T06:01:25;2.90;99.90
60860;DHT22;46694;54.382;9.708;2024-03-08T06:03:56;2.90;99.90
60860;DHT22;46694;54.382;9.708;2024-03-08T06:06:25;2.90;99.90
60860;DHT22;46694;54.382;9.708;2024-03-08T06:08:52;2.90;99.90
60860;DHT22;46694;54.382;9.708;2024-03-08T06:11:19;2.90;99.90
60860;DHT22;46694;54.382;9.708;2024-03-08T06:13:46;2.90;99.90
60860;DHT22;46694;54.382;9.708;2024-03-08T06:16:12;3.00;99.90
60860;DHT22;46694;54.382;9.708;2024-03-08T06:18:38;3.00;99.90
60860;DHT22;46694;54.382;9.708;2024-03-08T06:21:06;3.00;99.90
60860;DHT22;46694;54.382;9.708;2024-03-08T06:23:35;3.00;99.90
60860;DHT22;46694;54.382;9.708;2024-03-08T06:26:04;3.00;99.90
60860;DHT22;46694;54.382;9.708;2024-03-08T06:28:30;3.00;99.90
60860;DHT22;46694;54.382;9.708;2024-03-08T06:30:59;3.00;99.90
60860;DHT22;46694;54.382;9.708;2024-03-08T06:33:25;3.00;99.90
60860;DHT22;46694;54.382;9.708;2024-03-08T06:35:55;3.00;99.90
60860;DHT22;46694;54.382;9.708;2024-03-08T06:38:24;3.00;99.90
60860;DHT22;46694;54.382;9.708;2024-03-08T06:40:51;3.00;99.90
60860;DHT22;46694;54.382;9.708;2024-03-08T06:43:18;3.00;99.90
60860;DHT22;46694;54.382;9.708;2024-03-08T06:45:45;3.00;99.90
60860;DHT22;46694;54.382;9.708;2024-03-08T06:48:22;3.10;99.90
60860;DHT22;46694;54.382;9.708;2024-03-08T06:50:48;3.10;99.90
60860;DHT22;46694;54.382;9.708;2024-03-08T06:53:19;3.10;99.90
60860;DHT22;46694;54.382;9.708;2024-03-08T06:55:45;3.10;99.90
60860;DHT22;46694;54.382;9.708;2024-03-08T06:58:11;3.10;99.90
60860;DHT22;46694;54.382;9.708;2024-03-08T07:00:37;3.10;99.90
60860;DHT22;46694;54.382;9.708;2024-03-08T07:05:38;3.20;99.90
60860;DHT22;46694;54.382;9.708;2024-03-08T07:08:05;3.20;99.90
60860;DHT22;46694;54.382;9.708;2024-03-08T07:10:31;3.20;99.90
60860;DHT22;46694;54.382;9.708;2024-03-08T07:12:57;3.20;99.90
60860;DHT22;46694;54.382;9.708;2024-03-08T07:15:23;3.30;99.90
60860;DHT22;46694;54.382;9.708;2024-03-08T07:17:49;3.30;99.90
60860;DHT22;46694;54.382;9.708;2024-03-08T07:20:17;3.30;99.90
60860;DHT22;46694;54.382;9.708;2024-03-08T07:22:48;3.30;99.90
60860;DHT22;46694;54.382;9.708;2024-03-08T07:25:16;3.40;99.90
60860;DHT22;46694;54.382;9.708;2024-03-08T07:30:17;3.40;99.90
60860;DHT22;46694;54.382;9.708;2024-03-08T07:33:01;3.50;99.90
60860;DHT22;46694;54.382;9.708;2024-03-08T07:35:28;3.50;99.90
60860;DHT22;46694;54.382;9.708;2024-03-08T07:37:57;3.60;99.90
60860;DHT22;46694;54.382;9.708;2024-03-08T07:40:25;3.60;99.90
60860;DHT22;46694;54.382;9.708;2024-03-08T07:42:51;3.60;99.90
60860;DHT22;46694;54.382;9.708;2024-03-08T07:45:18;3.70;99.90
60860;DHT22;46694;54.382;9.708;2024-03-08T07:47:43;3.80;99.90
60860;DHT22;46694;54.382;9.708;2024-03-08T07:50:10;4.00;99.90
60860;DHT22;46694;54.382;9.708;2024-03-08T07:52:36;4.30;99.90
60860;DHT22;46694;54.382;9.708;2024-03-08T07:55:05;4.50;99.90
60860;DHT22;46694;54.382;9.708;2024-03-08T07:57:31;4.70;99.90
60860;DHT22;46694;54.382;9.708;2024-03-08T07:59:57;4.80;99.90
60860;DHT22;46694;54.382;9.708;2024-03-08T08:02:23;4.80;99.90
60860;DHT22;46694;54.382;9.708;2024-03-08T08:04:49;4.90;99.90
60860;DHT22;46694;54.382;9.708;2024-03-08T08:07:15;4.80;99.90
60860;DHT22;46694;54.382;9.708;2024-03-08T08:09:41;4.80;99.90
60860;DHT22;46694;54.382;9.708;2024-03-08T08:12:11;4.80;99.90
60860;DHT22;46694;54.382;9.708;2024-03-08T08:14:40;5.00;99.90
60860;DHT22;46694;54.382;9.708;2024-03-08T08:17:06;5.20;99.90
60860;DHT22;46694;54.382;9.708;2024-03-08T08:19:34;5.30;99.90
60860;DHT22;46694;54.382;9.708;2024-03-08T08:22:04;5.40;99.90
60860;DHT22;46694;54.382;9.708;2024-03-08T08:24:30;5.40;99.90
60860;DHT22;46694;54.382;9.708;2024-03-08T08:26:56;5.40;99.90
60860;DHT22;46694;54.382;9.708;2024-03-08T08:29:21;5.40;99.90
60860;DHT22;46694;54.382;9.708;2024-03-08T08:31:48;5.50;99.90
60860;DHT22;46694;54.382;9.708;2024-03-08T08:34:16;5.60;99.90
60860;DHT22;46694;54.382;9.708;2024-03-08T08:36:44;5.90;99.90
60860;DHT22;46694;54.382;9.708;2024-03-08T08:39:10;6.20;99.90
60860;DHT22;46694;54.382;9.708;2024-03-08T08:41:42;6.50;99.90
60860;DHT22;46694;54.382;9.708;2024-03-08T08:44:08;6.80;99.90
60860;DHT22;46694;54.382;9.708;2024-03-08T08:46:39;7.10;99.90
60860;DHT22;46694;54.382;9.708;2024-03-08T08:49:05;7.40;99.90
60860;DHT22;46694;54.382;9.708;2024-03-08T08:51:33;7.70;99.90
60860;DHT22;46694;54.382;9.708;2024-03-08T08:53:59;7.80;99.90
60860;DHT22;46694;54.382;9.708;2024-03-08T08:56:25;8.00;99.90
60860;DHT22;46694;54.382;9.708;2024-03-08T08:58:52;8.20;99.90
60860;DHT22;46694;54.382;9.708;2024-03-08T09:01:21;8.20;99.90
60860;DHT22;46694;54.382;9.708;2024-03-08T09:03:48;8.20;99.90
60860;DHT22;46694;54.382;9.708;2024-03-08T09:06:16;8.20;99.90
60860;DHT22;46694;54.382;9.708;2024-03-08T09:09:16;8.30;99.90
60860;DHT22;46694;54.382;9.708;2024-03-08T09:11:42;8.40;99.90
60860;DHT22;46694;54.382;9.708;2024-03-08T09:14:08;8.50;99.90
60860;DHT22;46694;54.382;9.708;2024-03-08T09:16:36;8.60;99.90
60860;DHT22;46694;54.382;9.708;2024-03-08T09:19:02;8.80;99.90
60860;DHT22;46694;54.382;9.708;2024-03-08T09:21:28;8.80;99.90
60860;DHT22;46694;54.382;9.708;2024-03-08T09:23:54;8.90;99.90
60860;DHT22;46694;54.382;9.708;2024-03-08T09:26:19;8.90;99.90
60860;DHT22;46694;54.382;9.708;2024-03-08T09:28:45;9.00;99.90
60860;DHT22;46694;54.382;9.708;2024-03-08T09:31:12;9.00;99.90
60860;DHT22;46694;54.382;9.708;2024-03-08T09:33:38;9.00;99.90
60860;DHT22;46694;54.382;9.708;2024-03-08T09:36:06;9.10;99.90
60860;DHT22;46694;54.382;9.708;2024-03-08T09:38:33;9.10;99.90
60860;DHT22;46694;54.382;9.708;2024-03-08T09:41:03;9.10;99.90
60860;DHT22;46694;54.382;9.708;2024-03-08T09:43:30;9.00;99.90
60860;DHT22;46694;54.382;9.708;2024-03-08T09:45:59;9.00;99.90
60860;DHT22;46694;54.382;9.708;2024-03-08T09:48:26;9.10;99.90
60860;DHT22;46694;54.382;9.708;2024-03-08T09:50:52;9.10;99.90
60860;DHT22;46694;54.382;9.708;2024-03-08T09:53:19;9.10;99.90
60860;DHT22;46694;54.382;9.708;2024-03-08T09:55:47;9.10;99.90
60860;DHT22;46694;54.382;9.708;2024-03-08T09:58:15;9.10;99.90
60860;DHT22;46694;54.382;9.708;2024-03-08T10:00:47;9.10;99.90
60860;DHT22;46694;54.382;9.708;2024-03-08T10:03:13;9.00;99.90
60860;DHT22;46694;54.382;9.708;2024-03-08T10:05:42;9.10;99.90
60860;DHT22;46694;54.382;9.708;2024-03-08T10:08:10;9.10;99.90
60860;DHT22;46694;54.382;9.708;2024-03-08T10:10:36;9.10;99.90
60860;DHT22;46694;54.382;9.708;2024-03-08T10:13:10;9.20;99.90
60860;DHT22;46694;54.382;9.708;2024-03-08T10:15:39;9.20;99.90
60860;DHT22;46694;54.382;9.708;2024-03-08T10:18:06;9.20;99.90
60860;DHT22;46694;54.382;9.708;2024-03-08T10:20:32;9.10;99.90
60860;DHT22;46694;54.382;9.708;2024-03-08T10:23:02;9.10;99.90
60860;DHT22;46694;54.382;9.708;2024-03-08T10:25:31;9.20;99.90
60860;DHT22;46694;54.382;9.708;2024-03-08T10:27:57;9.30;99.90
60860;DHT22;46694;54.382;9.708;2024-03-08T10:30:23;9.30;99.90
60860;DHT22;46694;54.382;9.708;2024-03-08T10:32:49;9.30;99.90
60860;DHT22;46694;54.382;9.708;2024-03-08T10:35:17;9.20;99.90
60860;DHT22;46694;54.382;9.708;2024-03-08T10:37:49;9.10;99.90
60860;DHT22;46694;54.382;9.708;2024-03-08T10:40:25;9.10;99.90
60860;DHT22;46694;54.382;9.708;2024-03-08T10:42:59;9.10;99.90
60860;DHT22;46694;54.382;9.708;2024-03-08T10:51:07;9.10;99.90
60860;DHT22;46694;54.382;9.708;2024-03-08T10:53:36;9.10;99.90
60860;DHT22;46694;54.382;9.708;2024-03-08T10:56:06;9.00;99.90
60860;DHT22;46694;54.382;9.708;2024-03-08T10:58:34;9.00;99.90
60860;DHT22;46694;54.382;9.708;2024-03-08T11:01:01;9.00;99.90
60860;DHT22;46694;54.382;9.708;2024-03-08T11:06:15;8.90;99.90
60860;DHT22;46694;54.382;9.708;2024-03-08T11:09:30;8.90;99.90
60860;DHT22;46694;54.382;9.708;2024-03-08T11:12:28;8.90;99.90
60860;DHT22;46694;54.382;9.708;2024-03-08T11:15:09;8.80;99.90
60860;DHT22;46694;54.382;9.708;2024-03-08T11:20:12;8.80;99.90
60860;DHT22;46694;54.382;9.708;2024-03-08T11:22:52;8.90;99.90
60860;DHT22;46694;54.382;9.708;2024-03-08T11:25:33;8.90;99.90
60860;DHT22;46694;54.382;9.708;2024-03-08T11:33:36;8.90;99.90
60860;DHT22;46694;54.382;9.708;2024-03-08T11:36:13;8.90;99.90
60860;DHT22;46694;54.382;9.708;2024-03-08T11:38:48;8.90;99.90
60860;DHT22;46694;54.382;9.708;2024-03-08T11:41:24;8.80;99.90
60860;DHT22;46694;54.382;9.708;2024-03-08T11:44:05;8.80;99.90
60860;DHT22;46694;54.382;9.708;2024-03-08T11:46:31;8.80;99.90
60860;DHT22;46694;54.382;9.708;2024-03-08T11:52:38;8.80;99.90
60860;DHT22;46694;54.382;9.708;2024-03-08T11:55:04;8.80;99.90
60860;DHT22;46694;54.382;9.708;2024-03-08T11:57:31;8.90;99.90
60860;DHT22;46694;54.382;9.708;2024-03-08T11:59:58;8.90;99.90
60860;DHT22;46694;54.382;9.708;2024-03-08T12:02:31;8.90;99.90
60860;DHT22;46694;54.382;9.708;2024-03-08T12:05:01;8.90;99.90
60860;DHT22;46694;54.382;9.708;2024-03-08T12:07:31;8.90;99.90
60860;DHT22;46694;54.382;9.708;2024-03-08T12:10:22;8.90;99.90
60860;DHT22;46694;54.382;9.708;2024-03-08T12:12:52;8.80;99.90
60860;DHT22;46694;54.382;9.708;2024-03-08T12:15:22;8.80;99.90
60860;DHT22;46694;54.382;9.708;2024-03-08T12:17:50;8.80;99.90
60860;DHT22;46694;54.382;9.708;2024-03-08T12:20:18;8.80;99.90
60860;DHT22;46694;54.382;9.708;2024-03-08T12:22:49;8.80;99.90
60860;DHT22;46694;54.382;9.708;2024-03-08T12:25:20;8.80;99.90
60860;DHT22;46694;54.382;9.708;2024-03-08T12:27:46;8.90;99.90
60860;DHT22;46694;54.382;9.708;2024-03-08T12:30:22;8.90;99.90
60860;DHT22;46694;54.382;9.708;2024-03-08T12:32:59;8.80;99.90
60860;DHT22;46694;54.382;9.708;2024-03-08T12:35:27;8.90;99.90
60860;DHT22;46694;54.382;9.708;2024-03-08T12:37:55;8.90;99.90
60860;DHT22;46694;54.382;9.708;2024-03-08T12:40:29;8.90;99.90
60860;DHT22;46694;54.382;9.708;2024-03-08T12:42:57;8.90;99.90
60860;DHT22;46694;54.382;9.708;2024-03-08T12:45:24;8.80;99.90
60860;DHT22;46694;54.382;9.708;2024-03-08T12:47:54;8.80;99.90
60860;DHT22;46694;54.382;9.708;2024-03-08T12:50:22;8.80;99.90
60860;DHT22;46694;54.382;9.708;2024-03-08T12:52:48;8.90;99.90
60860;DHT22;46694;54.382;9.708;2024-03-08T12:55:15;8.90;99.90
60860;DHT22;46694;54.382;9.708;2024-03-08T12:57:44;8.90;99.90
60860;DHT22;46694;54.382;9.708;2024-03-08T13:00:10;8.80;99.90
60860;DHT22;46694;54.382;9.708;2024-03-08T13:02:47;8.80;99.90
60860;DHT22;46694;54.382;9.708;2024-03-08T13:05:13;8.80;99.90
60860;DHT22;46694;54.382;9.708;2024-03-08T13:07:43;8.70;99.90
60860;DHT22;46694;54.382;9.708;2024-03-08T13:10:16;8.60;99.90
60860;DHT22;46694;54.382;9.708;2024-03-08T13:12:45;8.60;99.90
60860;DHT22;46694;54.382;9.708;2024-03-08T13:15:11;8.50;99.90
60860;DHT22;46694;54.382;9.708;2024-03-08T13:17:41;8.50;99.90
60860;DHT22;46694;54.382;9.708;2024-03-08T13:20:08;8.40;99.90
60860;DHT22;46694;54.382;9.708;2024-03-08T13:22:35;8.30;99.90
60860;DHT22;46694;54.382;9.708;2024-03-08T13:25:02;8.20;99.90
60860;DHT22;46694;54.382;9.708;2024-03-08T13:27:28;8.10;99.90
60860;DHT22;46694;54.382;9.708;2024-03-08T13:29:55;8.00;99.90
60860;DHT22;46694;54.382;9.708;2024-03-08T13:32:21;8.00;99.90
60860;DHT22;46694;54.382;9.708;2024-03-08T13:34:48;7.90;99.90
60860;DHT22;46694;54.382;9.708;2024-03-08T13:37:16;7.90;99.90
60860;DHT22;46694;54.382;9.708;2024-03-08T13:39:42;7.80;99.90
60860;DHT22;46694;54.382;9.708;2024-03-08T13:42:12;7.70;99.90
60860;DHT22;46694;54.382;9.708;2024-03-08T13:44:48;7.60;99.90
60860;DHT22;46694;54.382;9.708;2024-03-08T13:47:16;7.50;99.90
60860;DHT22;46694;54.382;9.708;2024-03-08T13:49:43;7.40;99.90
60860;DHT22;46694;54.382;9.708;2024-03-08T13:52:10;7.40;99.90
60860;DHT22;46694;54.382;9.708;2024-03-08T13:54:37;7.30;99.90
60860;DHT22;46694;54.382;9.708;2024-03-08T13:57:04;7.20;99.90
60860;DHT22;46694;54.382;9.708;2024-03-08T13:59:31;7.20;99.90
60860;DHT22;46694;54.382;9.708;2024-03-08T14:01:59;7.20;99.90
60860;DHT22;46694;54.382;9.708;2024-03-08T14:04:27;7.10;99.90
60860;DHT22;46694;54.382;9.708;2024-03-08T14:06:54;7.00;99.90
60860;DHT22;46694;54.382;9.708;2024-03-08T14:09:23;7.00;99.90
60860;DHT22;46694;54.382;9.708;2024-03-08T14:11:51;6.90;99.90
60860;DHT22;46694;54.382;9.708;2024-03-08T14:14:21;6.90;99.90
60860;DHT22;46694;54.382;9.708;2024-03-08T14:16:49;6.90;99.90
60860;DHT22;46694;54.382;9.708;2024-03-08T14:19:19;6.80;99.90
60860;DHT22;46694;54.382;9.708;2024-03-08T14:21:45;6.80;99.90
60860;DHT22;46694;54.382;9.708;2024-03-08T14:24:16;6.70;99.90
60860;DHT22;46694;54.382;9.708;2024-03-08T14:26:42;6.60;99.90
60860;DHT22;46694;54.382;9.708;2024-03-08T14:29:08;6.60;99.90
60860;DHT22;46694;54.382;9.708;2024-03-08T14:31:38;6.50;99.90
60860;DHT22;46694;54.382;9.708;2024-03-08T14:34:04;6.50;99.90
60860;DHT22;46694;54.382;9.708;2024-03-08T14:36:30;6.50;99.90
60860;DHT22;46694;54.382;9.708;2024-03-08T14:38:56;6.40;99.90
60860;DHT22;46694;54.382;9.708;2024-03-08T14:41:22;6.30;99.90
60860;DHT22;46694;54.382;9.708;2024-03-08T14:43:48;6.30;99.90
60860;DHT22;46694;54.382;9.708;2024-03-08T14:46:15;6.20;99.90
60860;DHT22;46694;54.382;9.708;2024-03-08T14:48:49;6.10;99.90
60860;DHT22;46694;54.382;9.708;2024-03-08T14:51:19;6.10;99.90
60860;DHT22;46694;54.382;9.708;2024-03-08T14:53:48;6.00;99.90
60860;DHT22;46694;54.382;9.708;2024-03-08T14:56:15;5.90;99.90
60860;DHT22;46694;54.382;9.708;2024-03-08T14:58:45;5.80;99.90
60860;DHT22;46694;54.382;9.708;2024-03-08T15:01:18;5.70;99.90
60860;DHT22;46694;54.382;9.708;2024-03-08T15:03:50;5.70;99.90
60860;DHT22;46694;54.382;9.708;2024-03-08T15:06:16;5.60;99.90
60860;DHT22;46694;54.382;9.708;2024-03-08T15:08:46;5.50;99.90
60860;DHT22;46694;54.382;9.708;2024-03-08T15:11:12;5.40;99.90
60860;DHT22;46694;54.382;9.708;2024-03-08T15:13:50;5.30;99.90
60860;DHT22;46694;54.382;9.708;2024-03-08T15:16:19;5.30;99.90
60860;DHT22;46694;54.382;9.708;2024-03-08T15:18:48;5.20;99.90
60860;DHT22;46694;54.382;9.708;2024-03-08T15:21:17;5.20;99.90
60860;DHT22;46694;54.382;9.708;2024-03-08T15:23:45;5.10;99.90
60860;DHT22;46694;54.382;9.708;2024-03-08T15:26:17;5.10;99.90
60860;DHT22;46694;54.382;9.708;2024-03-08T15:28:44;5.00;99.90
60860;DHT22;46694;54.382;9.708;2024-03-08T15:31:12;5.00;99.90
60860;DHT22;46694;54.382;9.708;2024-03-08T15:33:39;4.90;99.90
60860;DHT22;46694;54.382;9.708;2024-03-08T15:36:17;4.90;99.90
60860;DHT22;46694;54.382;9.708;2024-03-08T15:38:46;4.90;99.90
60860;DHT22;46694;54.382;9.708;2024-03-08T15:41:13;4.80;99.90
60860;DHT22;46694;54.382;9.708;2024-03-08T15:43:40;4.70;99.90
60860;DHT22;46694;54.382;9.708;2024-03-08T15:46:06;4.60;99.90
60860;DHT22;46694;54.382;9.708;2024-03-08T15:48:33;4.60;99.90
60860;DHT22;46694;54.382;9.708;2024-03-08T15:51:04;4.50;99.90
60860;DHT22;46694;54.382;9.708;2024-03-08T15:53:33;4.50;99.90
60860;DHT22;46694;54.382;9.708;2024-03-08T15:56:04;4.50;99.90
60860;DHT22;46694;54.382;9.708;2024-03-08T15:58:34;4.40;99.90
60860;DHT22;46694;54.382;9.708;2024-03-08T16:01:03;4.30;99.90
60860;DHT22;46694;54.382;9.708;2024-03-08T16:03:33;4.30;99.90
60860;DHT22;46694;54.382;9.708;2024-03-08T16:05:59;4.20;99.90
60860;DHT22;46694;54.382;9.708;2024-03-08T16:08:25;4.20;99.90
60860;DHT22;46694;54.382;9.708;2024-03-08T16:10:53;4.20;99.90
60860;DHT22;46694;54.382;9.708;2024-03-08T16:13:27;4.20;99.90
60860;DHT22;46694;54.382;9.708;2024-03-08T16:15:54;4.20;99.90